Archiv-/Tagesdaten

--Timestamp---	Temp	Chill	HIndex	Humid	Dewpt	Wind	HiWind	WindDir	Rain	Barom	        Solar	ET	UV
--------------	----	-----	------	-----	-----	----	------	-------	----	-----	        -----	--	--
20081010 00:05	10.0	10.0	10.0	95	9.2	3	8	202	0.00	1032.547	0	0.000	0
20081010 00:10	10.0	10.0	10.0	95	9.2	0	5	202	0.00	1032.513	0	0.000	0
20081010 00:15	9.9	9.9	9.9	95	9.2	2	5	180	0.00	1032.445	0	0.000	0
20081010 00:20	9.8	9.8	9.8	95	9.0	3	10	225	0.00	1032.411	0	0.000	0
20081010 00:25	9.7	9.7	9.7	95	9.0	3	8	202	0.00	1032.411	0	0.000	0
20081010 00:30	9.7	9.7	9.7	95	8.9	2	6	225	0.00	1032.411	0	0.000	0
20081010 00:35	9.7	9.7	9.7	95	8.9	2	8	225	0.00	1032.344	0	0.000	0
20081010 00:40	9.7	9.7	9.7	95	8.9	0	3	157	0.00	1032.310	0	0.000	0
20081010 00:45	9.7	9.7	9.7	95	8.9	0	5	157	0.20	1032.411	0	0.000	0
20081010 00:50	9.7	9.7	9.7	95	8.9	0	5	180	0.00	1032.614	0	0.000	0
20081010 00:55	9.6	9.6	9.6	95	8.8	2	5	180	0.00	1032.445	0	0.000	0
20081010 01:00	9.6	9.6	9.6	95	8.8	0	3	180	0.00	1032.344	0	0.000	0
20081010 01:05	9.6	9.6	9.6	95	8.8	0	0	180	0.00	1032.377	0	0.000	0
20081010 01:10	9.5	9.5	9.5	95	8.7	0	2	180	0.00	1032.377	0	0.000	0
20081010 01:15	9.4	9.4	9.4	95	8.6	0	2	180	0.00	1032.411	0	0.000	0
20081010 01:20	9.3	9.3	9.3	95	8.6	0	2	180	0.00	1032.479	0	0.000	0
20081010 01:25	9.3	9.3	9.3	95	8.5	0	3	180	0.00	1032.445	0	0.000	0
20081010 01:30	9.3	9.3	9.3	95	8.5	0	0	180	0.00	1032.547	0	0.000	0
20081010 01:35	9.2	9.2	9.2	95	8.5	0	0	180	0.00	1032.581	0	0.000	0
20081010 01:40	9.2	9.2	9.2	95	8.4	0	2	180	0.00	1032.513	0	0.000	0
20081010 01:45	9.2	9.2	9.2	95	8.4	0	0	180	0.00	1032.547	0	0.000	0
20081010 01:50	9.2	9.2	9.2	95	8.4	0	0	180	0.00	1032.547	0	0.000	0
20081010 01:55	9.2	9.2	9.2	95	8.4	0	5	180	0.00	1032.479	0	0.000	0
20081010 02:00	9.2	9.2	9.2	95	8.4	0	3	180	0.00	1032.411	0	0.000	0
20081010 02:05	9.2	9.2	9.2	95	8.4	0	3	180	0.00	1032.411	0	0.000	0
20081010 02:10	9.2	9.2	9.2	95	8.4	0	3	180	0.00	1032.445	0	0.000	0
20081010 02:15	9.2	9.2	9.2	95	8.4	0	0	180	0.00	1032.411	0	0.000	0
20081010 02:20	9.1	9.1	9.1	95	8.4	0	2	180	0.00	1032.411	0	0.000	0
20081010 02:25	9.1	9.1	9.1	95	8.3	0	2	180	0.00	1032.411	0	0.000	0
20081010 02:30	9.1	9.1	9.1	95	8.3	0	0	180	0.00	1032.547	0	0.000	0
20081010 02:35	9.0	9.0	9.0	95	8.2	0	0	180	0.00	1032.547	0	0.000	0
20081010 02:40	8.9	8.9	8.9	95	8.2	0	0	180	0.00	1032.479	0	0.000	0
20081010 02:45	8.9	8.9	8.9	95	8.2	0	0	180	0.00	1032.547	0	0.000	0
20081010 02:50	8.9	8.9	8.9	95	8.1	0	0	180	0.00	1032.614	0	0.000	0
20081010 02:55	8.9	8.9	8.9	95	8.1	0	0	180	0.00	1032.716	0	0.000	0
20081010 03:00	8.8	8.8	8.8	95	8.1	0	0	180	0.00	1032.750	0	0.000	0
20081010 03:05	8.8	8.8	8.8	95	8.0	0	0	180	0.00	1032.885	0	0.000	0
20081010 03:10	8.8	8.8	8.8	95	8.0	0	0	180	0.00	1032.885	0	0.000	0
20081010 03:15	8.8	8.8	8.8	95	8.1	0	0	180	0.00	1032.919	0	0.000	0
20081010 03:20	8.8	8.8	8.8	95	8.0	0	3	202	0.00	1032.919	0	0.000	0
20081010 03:25	8.8	8.8	8.8	95	8.0	2	5	202	0.00	1032.851	0	0.000	0
20081010 03:30	8.7	8.7	8.7	95	8.0	0	0	202	0.00	1032.784	0	0.000	0
20081010 03:35	8.7	8.7	8.7	95	8.0	0	0	202	0.00	1032.818	0	0.000	0
20081010 03:40	8.7	8.7	8.7	95	7.9	2	3	202	0.00	1032.851	0	0.000	0
20081010 03:45	8.7	8.7	8.7	95	8.0	2	5	202	0.00	1032.851	0	0.000	0
20081010 03:50	8.7	8.7	8.7	95	7.9	2	5	202	0.00	1032.750	0	0.000	0
20081010 03:55	8.6	8.6	8.6	95	7.9	0	3	202	0.00	1032.750	0	0.000	0
20081010 04:00	8.6	8.6	8.6	95	7.8	2	5	202	0.00	1032.885	0	0.000	0
20081010 04:05	8.4	8.4	8.4	95	7.7	2	5	202	0.00	1033.021	0	0.000	0
20081010 04:10	8.4	8.4	8.4	95	7.7	0	3	202	0.00	1032.953	0	0.000	0
20081010 04:15	8.4	8.4	8.4	95	7.6	0	2	202	0.00	1032.919	0	0.000	0
20081010 04:20	8.4	8.4	8.4	95	7.6	0	3	202	0.00	1032.919	0	0.000	0
20081010 04:25	8.3	8.3	8.3	95	7.6	0	0	202	0.00	1032.953	0	0.000	0
20081010 04:30	8.3	8.3	8.3	95	7.6	0	0	202	0.00	1033.021	0	0.000	0
20081010 04:35	8.3	8.3	8.3	95	7.5	0	0	202	0.00	1032.953	0	0.000	0
20081010 04:40	8.3	8.3	8.3	95	7.5	0	0	202	0.00	1032.953	0	0.000	0
20081010 04:45	8.2	8.2	8.2	95	7.5	0	0	202	0.00	1032.919	0	0.000	0
20081010 04:50	8.2	8.2	8.2	95	7.5	0	0	202	0.00	1032.987	0	0.000	0
20081010 04:55	8.2	8.2	8.2	95	7.5	0	0	202	0.00	1033.021	0	0.000	0
20081010 05:00	8.2	8.2	8.2	95	7.5	0	0	202	0.00	1032.953	0	0.000	0
20081010 05:05	8.2	8.2	8.2	95	7.5	0	0	202	0.00	1033.190	0	0.000	0
20081010 05:10	8.2	8.2	8.2	95	7.5	0	0	202	0.00	1033.224	0	0.000	0
20081010 05:15	8.2	8.2	8.2	95	7.5	0	2	202	0.00	1033.258	0	0.000	0
20081010 05:20	8.2	8.2	8.2	95	7.4	0	0	202	0.00	1033.326	0	0.000	0
20081010 05:25	8.2	8.2	8.2	95	7.4	0	0	202	0.00	1033.393	0	0.000	0
20081010 05:30	8.1	8.1	8.1	95	7.4	0	0	202	0.00	1033.529	0	0.000	0
20081010 05:35	8.1	8.1	8.1	95	7.4	0	0	202	0.00	1033.596	0	0.000	0
20081010 05:40	8.1	8.1	8.1	95	7.3	0	2	202	0.00	1033.563	0	0.000	0
20081010 05:45	8.1	8.1	8.1	95	7.3	0	2	202	0.00	1033.563	0	0.000	0
20081010 05:50	8.1	8.1	8.1	95	7.3	0	2	202	0.00	1033.698	0	0.000	0
20081010 05:55	8.0	8.0	8.0	95	7.2	0	2	202	0.00	1033.732	0	0.000	0
20081010 06:00	8.0	8.0	8.0	95	7.2	0	2	202	0.00	1033.766	0	0.000	0
20081010 06:05	8.0	8.0	8.0	95	7.2	0	0	202	0.00	1033.901	0	0.000	0
20081010 06:10	8.1	8.1	8.1	95	7.3	0	0	202	0.00	1033.800	0	0.000	0
20081010 06:15	8.1	8.1	8.1	95	7.3	0	2	202	0.00	1033.833	0	0.000	0
20081010 06:20	8.1	8.1	8.1	95	7.4	0	0	202	0.00	1033.867	0	0.000	0
20081010 06:25	8.1	8.1	8.1	95	7.4	0	0	202	0.00	1033.867	0	0.000	0
20081010 06:30	8.2	8.2	8.2	95	7.4	0	2	202	0.00	1033.833	0	0.000	0
20081010 06:35	8.2	8.2	8.2	95	7.4	0	0	202	0.00	1033.833	0	0.000	0
20081010 06:40	8.2	8.2	8.2	95	7.4	0	0	202	0.00	1033.800	0	0.000	0
20081010 06:45	8.2	8.2	8.2	95	7.4	0	0	202	0.00	1033.800	0	0.000	0
20081010 06:50	8.2	8.2	8.2	95	7.4	0	0	202	0.00	1033.766	0	0.000	0
20081010 06:55	8.2	8.2	8.2	95	7.5	0	0	202	0.00	1033.698	0	0.000	0
20081010 07:00	8.2	8.2	8.2	95	7.5	0	0	202	0.00	1033.630	0	0.000	0
20081010 07:05	8.3	8.3	8.3	95	7.6	0	0	202	0.00	1033.698	0	0.000	0
20081010 07:10	8.3	8.3	8.3	95	7.6	0	2	202	0.00	1033.698	0	0.000	0
20081010 07:15	8.4	8.4	8.4	95	7.6	0	0	202	0.00	1033.732	0	0.000	0
20081010 07:20	8.4	8.4	8.4	95	7.6	0	5	202	0.00	1033.664	0	0.000	0
20081010 07:25	8.4	8.4	8.4	95	7.7	2	5	202	0.00	1033.664	0	0.000	0
20081010 07:30	8.4	8.4	8.4	95	7.7	0	3	202	0.00	1033.698	0	0.000	0
20081010 07:35	8.5	8.5	8.5	95	7.7	2	5	202	0.00	1033.732	0	0.000	0
20081010 07:40	8.6	8.6	8.6	95	7.8	0	3	202	0.00	1033.766	0	0.000	0
20081010 07:45	8.6	8.6	8.6	95	7.9	0	3	202	0.00	1033.766	0	0.000	0
20081010 07:50	8.7	8.7	8.7	95	7.9	0	2	202	0.00	1033.800	3	0.000	0
20081010 07:55	8.7	8.7	8.7	95	8.0	0	3	202	0.00	1033.969	5	0.000	0
20081010 08:00	8.8	8.8	8.8	95	8.0	2	5	202	0.00	1034.138	7	0.000	0
20081010 08:05	8.8	8.8	8.8	95	8.1	0	0	202	0.00	1034.138	9	0.000	0
20081010 08:10	8.9	8.9	8.9	95	8.1	0	3	202	0.00	1034.274	11	0.000	0
20081010 08:15	8.9	8.9	8.9	95	8.1	0	5	202	0.00	1034.341	12	0.000	0
20081010 08:20	8.9	8.9	8.9	95	8.2	0	3	202	0.00	1034.443	14	0.000	0
20081010 08:25	8.9	8.9	8.9	95	8.2	0	5	202	0.00	1034.477	18	0.000	0
20081010 08:30	8.9	8.9	8.9	95	8.1	0	3	202	0.00	1034.545	19	0.000	0
20081010 08:35	8.9	8.9	8.9	95	8.1	0	2	202	0.00	1034.545	20	0.000	0
20081010 08:40	8.9	8.9	8.9	95	8.1	0	0	202	0.00	1034.578	23	0.000	0
20081010 08:45	8.9	8.9	8.9	95	8.1	0	3	202	0.00	1034.646	27	0.000	0
20081010 08:50	8.9	8.9	8.9	95	8.2	0	3	202	0.00	1034.612	31	0.000	0
20081010 08:55	8.9	8.9	8.9	95	8.2	0	5	202	0.00	1034.646	33	0.000	0
20081010 09:00	9.0	9.0	9.0	95	8.2	0	3	202	0.00	1034.612	37	0.000	0
20081010 09:05	9.0	9.0	9.0	95	8.2	0	3	202	0.00	1034.612	40	0.000	0
20081010 09:10	9.1	9.1	9.1	95	8.3	0	3	202	0.00	1034.680	40	0.000	0
20081010 09:15	9.1	9.1	9.1	95	8.4	0	3	202	0.00	1034.680	45	0.000	0
20081010 09:20	9.2	9.2	9.2	95	8.4	0	2	202	0.00	1034.511	49	0.000	0
20081010 09:25	9.2	9.2	9.2	95	8.5	0	6	202	0.00	1034.443	55	0.000	0
20081010 09:30	9.2	9.2	9.2	95	8.5	2	8	135	0.00	1034.578	60	0.000	0
20081010 09:35	9.3	9.3	9.3	95	8.5	0	2	135	0.00	1034.646	61	0.000	0
20081010 09:40	9.3	9.3	9.3	95	8.6	0	2	135	0.00	1034.714	62	0.000	0
20081010 09:45	9.4	9.4	9.4	95	8.6	0	2	135	0.00	1034.748	67	0.000	0
20081010 09:50	9.5	9.5	9.5	95	8.7	0	2	135	0.00	1034.748	67	0.000	0
20081010 09:55	9.5	9.5	9.5	95	8.7	2	5	135	0.00	1034.714	73	0.000	0
20081010 10:00	9.6	9.6	9.6	95	8.8	0	2	135	0.00	1034.646	78	0.020	0
20081010 10:05	9.6	9.6	9.6	95	8.8	0	2	135	0.00	1034.714	93	0.000	0
20081010 10:10	9.7	9.7	9.7	95	8.9	0	2	135	0.00	1034.646	84	0.000	0
20081010 10:15	9.7	9.7	9.7	95	9.0	0	5	135	0.00	1034.511	78	0.000	0
20081010 10:20	9.7	9.7	9.7	96	9.1	0	0	135	0.00	1034.477	81	0.000	0
20081010 10:25	9.7	9.7	9.7	96	9.1	2	5	135	0.00	1034.443	75	0.000	0
20081010 10:30	9.7	9.7	9.7	95	9.0	2	3	135	0.00	1034.443	92	0.000	1
20081010 10:35	9.8	9.8	9.8	96	9.2	0	3	135	0.00	1034.477	96	0.000	1
20081010 10:40	9.7	9.7	9.7	95	8.9	0	3	135	0.00	1034.578	104	0.000	1
20081010 10:45	9.7	9.7	9.7	95	8.9	0	5	135	0.00	1034.545	97	0.000	1
20081010 10:50	9.7	9.7	9.7	95	8.9	2	5	135	0.00	1034.578	77	0.000	1
20081010 10:55	9.7	9.7	9.7	95	8.9	0	3	135	0.00	1034.545	101	0.000	1
20081010 11:00	9.7	9.7	9.7	95	9.0	0	3	135	0.00	1034.443	111	0.040	1
20081010 11:05	9.8	9.8	9.8	95	9.0	0	3	135	0.00	1034.477	112	0.000	1
20081010 11:10	9.9	9.9	9.9	95	9.1	0	0	135	0.00	1034.409	94	0.000	1
20081010 11:15	9.9	9.9	9.9	95	9.2	0	0	135	0.00	1034.443	117	0.000	1
20081010 11:20	10.0	10.0	10.0	95	9.2	0	3	135	0.00	1034.545	121	0.000	1
20081010 11:25	10.1	10.1	10.1	95	9.3	2	5	135	0.00	1034.646	119	0.000	1
20081010 11:30	10.1	10.1	10.1	95	9.3	2	3	135	0.00	1034.748	117	0.000	1
20081010 11:35	10.0	10.0	10.0	95	9.2	2	5	270	0.00	1034.782	117	0.000	1
20081010 11:40	10.0	10.0	10.0	95	9.2	2	5	292	0.00	1034.816	115	0.000	1
20081010 11:45	10.1	10.1	10.1	95	9.3	0	2	292	0.00	1034.782	122	0.000	1
20081010 11:50	10.0	10.0	10.0	95	9.2	0	5	0	0.00	1034.646	127	0.000	1
20081010 11:55	10.0	10.0	10.0	95	9.2	0	0	0	0.00	1034.477	131	0.000	1
20081010 12:00	10.1	10.1	10.1	95	9.3	0	2	0	0.00	1034.409	140	0.040	1
20081010 12:05	10.2	10.2	10.2	95	9.4	0	2	0	0.00	1034.646	141	0.000	1
20081010 12:10	10.2	10.2	10.2	95	9.4	0	5	337	0.00	1034.545	135	0.000	1
20081010 12:15	10.1	10.1	10.1	95	9.3	0	3	337	0.00	1034.375	134	0.000	1
20081010 12:20	10.3	10.3	10.3	95	9.5	0	3	337	0.00	1034.443	129	0.000	1
20081010 12:25	10.3	10.3	10.3	95	9.6	2	3	337	0.00	1034.308	131	0.000	1
20081010 12:30	10.4	10.4	10.4	95	9.7	0	3	337	0.00	1034.206	137	0.000	1
20081010 12:35	10.5	10.5	10.5	95	9.7	0	2	0	0.00	1034.274	142	0.000	1
20081010 12:40	10.4	10.4	10.4	95	9.7	0	3	0	0.00	1034.443	132	0.000	1
20081010 12:45	10.4	10.4	10.4	95	9.6	3	5	45	0.00	1034.341	130	0.000	1
20081010 12:50	10.4	10.4	10.4	95	9.6	2	3	67	0.00	1034.308	131	0.000	1
20081010 12:55	10.4	10.4	10.4	95	9.7	0	2	67	0.00	1034.274	130	0.000	1
20081010 13:00	10.5	10.5	10.5	95	9.7	2	5	67	0.00	1034.308	130	0.040	1
20081010 13:05	10.6	10.6	10.6	94	9.6	2	5	67	0.00	1034.240	133	0.000	1
20081010 13:10	10.6	10.6	10.6	94	9.6	2	6	67	0.00	1034.274	126	0.000	1
20081010 13:15	10.6	10.6	10.6	94	9.7	0	3	67	0.00	1034.172	121	0.000	1
20081010 13:20	10.7	10.7	10.7	94	9.7	0	5	67	0.00	1034.172	118	0.000	1
20081010 13:25	10.8	10.8	10.8	94	9.9	2	5	67	0.00	1034.104	119	0.000	1
20081010 13:30	10.8	10.8	10.8	94	9.9	2	6	135	0.00	1034.138	118	0.000	1
20081010 13:35	10.8	10.8	10.8	93	9.7	2	6	135	0.00	1034.206	114	0.000	1
20081010 13:40	10.8	10.8	10.8	93	9.7	3	6	45	0.00	1034.172	129	0.000	1
20081010 13:45	10.8	10.8	10.8	92	9.6	2	5	0	0.00	1034.138	139	0.000	1
20081010 13:50	10.9	10.9	10.9	92	9.6	0	3	0	0.00	1034.138	119	0.000	1
20081010 13:55	10.9	10.9	10.9	92	9.7	3	6	45	0.00	1034.071	122	0.000	1
20081010 14:00	11.0	11.0	11.0	91	9.6	3	5	45	0.00	1034.071	140	0.040	1
20081010 14:05	11.1	11.1	11.1	91	9.6	2	6	22	0.00	1034.003	135	0.000	1
20081010 14:10	11.1	11.1	11.1	91	9.6	0	5	45	0.00	1034.003	116	0.000	1
20081010 14:15	11.2	11.2	11.2	91	9.8	3	6	45	0.00	1034.071	121	0.000	1
20081010 14:20	11.2	11.2	11.2	90	9.6	2	6	45	0.00	1034.104	116	0.000	1
20081010 14:25	11.3	11.3	11.3	90	9.7	2	5	45	0.00	1034.003	136	0.000	1
20081010 14:30	11.3	11.3	11.3	89	9.6	0	2	45	0.00	1033.867	163	0.000	1
20081010 14:35	11.4	11.4	11.4	89	9.6	2	6	45	0.00	1033.833	141	0.000	1
20081010 14:40	11.5	11.5	11.5	89	9.7	2	8	45	0.00	1033.901	141	0.000	1
20081010 14:45	11.6	11.6	11.6	88	9.6	3	8	45	0.00	1033.800	154	0.000	1
20081010 14:50	11.6	11.6	11.6	87	9.5	3	8	0	0.00	1033.732	163	0.000	1
20081010 14:55	11.7	11.7	11.7	87	9.6	2	6	22	0.00	1033.596	181	0.000	1
20081010 15:00	11.9	11.9	11.9	87	9.8	3	6	45	0.00	1033.630	175	0.060	1
20081010 15:05	11.9	11.9	11.9	87	9.8	3	5	67	0.00	1033.563	218	0.000	1
20081010 15:10	11.9	11.9	11.9	87	9.8	2	5	67	0.00	1033.495	179	0.000	1
20081010 15:15	12.1	12.1	12.1	87	10.0	3	6	112	0.00	1033.529	137	0.000	1
20081010 15:20	12.1	12.1	12.1	87	10.0	2	5	67	0.00	1033.461	139	0.000	1
20081010 15:25	12.2	12.2	12.2	86	9.9	2	6	135	0.00	1033.427	161	0.000	1
20081010 15:30	12.3	12.3	12.3	86	10.0	3	8	135	0.00	1033.359	175	0.000	1
20081010 15:35	12.3	12.3	12.3	86	10.1	3	6	112	0.00	1033.393	137	0.000	1
20081010 15:40	12.3	12.3	12.3	85	9.8	2	5	135	0.00	1033.359	204	0.000	1
20081010 15:45	12.3	12.3	12.3	85	9.9	3	6	90	0.00	1033.359	180	0.000	1
20081010 15:50	12.3	12.3	12.3	85	9.9	2	5	112	0.00	1033.190	133	0.000	1
20081010 15:55	12.3	12.3	12.3	85	9.8	3	6	67	0.00	1033.055	118	0.000	1
20081010 16:00	12.2	12.2	12.2	86	9.9	3	6	22	0.00	1032.987	106	0.060	1
20081010 16:05	12.1	12.1	12.1	86	9.8	2	5	90	0.00	1032.987	103	0.000	1
20081010 16:10	12.1	12.1	12.1	86	9.8	3	6	45	0.00	1032.953	96	0.000	1
20081010 16:15	12.0	12.0	12.0	85	9.6	2	6	45	0.00	1033.055	113	0.000	1
20081010 16:20	12.0	12.0	12.0	85	9.6	3	6	67	0.00	1033.021	106	0.000	1
20081010 16:25	11.9	11.9	11.9	85	9.5	3	6	67	0.00	1032.953	103	0.000	1
20081010 16:30	12.0	12.0	12.0	86	9.7	2	5	67	0.00	1032.953	111	0.000	0
20081010 16:35	12.0	12.0	12.0	85	9.6	3	6	67	0.00	1032.953	105	0.000	0
20081010 16:40	12.0	12.0	12.0	85	9.6	3	6	45	0.00	1033.156	118	0.000	0
20081010 16:45	12.0	12.0	12.0	85	9.6	5	8	0	0.00	1033.156	122	0.000	0
20081010 16:50	12.1	12.1	12.1	85	9.6	0	5	315	0.00	1033.089	128	0.000	0
20081010 16:55	12.2	12.2	12.2	84	9.5	0	3	315	0.00	1033.055	108	0.000	0
20081010 17:00	12.2	12.2	12.2	85	9.7	0	3	315	0.00	1033.055	74	0.040	0
20081010 17:05	12.2	12.2	12.2	85	9.7	2	5	45	0.00	1033.089	59	0.000	0
20081010 17:10	12.1	12.1	12.1	85	9.7	3	6	67	0.00	1033.089	71	0.000	0
20081010 17:15	12.1	12.1	12.1	84	9.4	5	8	45	0.00	1033.055	67	0.000	0
20081010 17:20	12.0	12.0	12.0	85	9.6	3	6	45	0.00	1033.021	57	0.000	0
20081010 17:25	11.9	11.9	11.9	85	9.4	3	5	22	0.00	1033.089	53	0.000	0
20081010 17:30	11.8	11.8	11.8	85	9.4	5	8	22	0.00	1033.156	50	0.000	0
20081010 17:35	11.7	11.7	11.7	85	9.3	5	6	45	0.00	1033.258	47	0.000	0
20081010 17:40	11.7	11.7	11.7	86	9.5	5	10	22	0.00	1033.326	50	0.000	0
20081010 17:45	11.7	11.7	11.7	86	9.4	5	8	45	0.00	1033.427	40	0.000	0
20081010 17:50	11.6	11.6	11.6	86	9.3	5	8	45	0.00	1033.326	35	0.000	0
20081010 17:55	11.6	11.6	11.6	87	9.5	3	6	45	0.00	1033.326	30	0.000	0
20081010 18:00	11.5	11.5	11.5	87	9.4	3	8	22	0.00	1033.292	25	0.020	0
20081010 18:05	11.4	11.4	11.4	87	9.3	2	5	22	0.00	1033.156	20	0.000	0
20081010 18:10	11.3	11.3	11.3	87	9.2	3	6	22	0.00	1033.258	17	0.000	0
20081010 18:15	11.3	11.3	11.3	87	9.2	2	3	22	0.00	1033.190	14	0.000	0
20081010 18:20	11.2	11.2	11.2	88	9.3	0	3	22	0.00	1033.089	12	0.000	0
20081010 18:25	11.2	11.2	11.2	88	9.3	0	2	22	0.00	1033.122	9	0.000	0
20081010 18:30	11.1	11.1	11.1	88	9.1	0	3	22	0.00	1033.055	6	0.000	0
20081010 18:35	11.0	11.0	11.0	88	9.1	0	2	22	0.00	1032.987	1	0.000	0
20081010 18:40	10.9	10.9	10.9	89	9.2	0	2	22	0.00	1032.953	0	0.000	0
20081010 18:45	10.8	10.8	10.8	88	8.9	0	2	22	0.00	1032.987	0	0.000	0
20081010 18:50	10.7	10.7	10.7	89	9.0	0	2	22	0.00	1033.021	0	0.000	0
20081010 18:55	10.6	10.6	10.6	89	8.9	0	2	22	0.00	1033.122	0	0.000	0
20081010 19:00	10.5	10.5	10.5	89	8.8	0	2	22	0.00	1033.089	0	0.000	0
20081010 19:05	10.4	10.4	10.4	90	8.8	0	3	22	0.00	1033.258	0	0.000	0
20081010 19:10	10.3	10.3	10.3	90	8.7	2	5	22	0.00	1033.190	0	0.000	0
20081010 19:15	10.2	10.2	10.2	90	8.6	0	5	45	0.00	1033.156	0	0.000	0
20081010 19:20	10.1	10.1	10.1	90	8.5	0	2	45	0.00	1033.156	0	0.000	0
20081010 19:25	10.0	10.0	10.0	90	8.4	0	0	45	0.00	1033.190	0	0.000	0
20081010 19:30	9.9	9.9	9.9	90	8.4	0	2	45	0.00	1033.156	0	0.000	0
20081010 19:35	9.9	9.9	9.9	91	8.5	0	2	45	0.00	1033.258	0	0.000	0
20081010 19:40	9.8	9.8	9.8	91	8.4	0	0	45	0.00	1033.156	0	0.000	0
20081010 19:45	9.8	9.8	9.8	91	8.4	0	3	45	0.00	1033.190	0	0.000	0
20081010 19:50	9.8	9.8	9.8	91	8.4	0	2	45	0.00	1033.292	0	0.000	0
20081010 19:55	9.8	9.8	9.8	91	8.4	0	0	45	0.00	1033.258	0	0.000	0
20081010 20:00	9.8	9.8	9.8	92	8.5	0	0	45	0.00	1033.292	0	0.000	0
20081010 20:05	9.8	9.8	9.8	92	8.6	0	0	45	0.00	1033.292	0	0.000	0
20081010 20:10	9.8	9.8	9.8	92	8.6	0	0	45	0.00	1033.258	0	0.000	0
20081010 20:15	9.8	9.8	9.8	92	8.6	0	0	45	0.00	1033.292	0	0.000	0
20081010 20:20	9.8	9.8	9.8	92	8.6	0	0	45	0.00	1033.359	0	0.000	0
20081010 20:25	9.8	9.8	9.8	92	8.6	0	0	45	0.00	1033.359	0	0.000	0
20081010 20:30	9.8	9.8	9.8	92	8.6	0	0	45	0.00	1033.359	0	0.000	0
20081010 20:35	9.8	9.8	9.8	92	8.6	0	0	45	0.00	1033.393	0	0.000	0
20081010 20:40	9.9	9.9	9.9	92	8.6	0	3	45	0.00	1033.427	0	0.000	0
20081010 20:45	9.9	9.9	9.9	92	8.7	0	3	45	0.00	1033.393	0	0.000	0
20081010 20:50	9.9	9.9	9.9	92	8.7	0	2	45	0.00	1033.359	0	0.000	0
20081010 20:55	10.0	10.0	10.0	92	8.8	0	0	45	0.00	1033.359	0	0.000	0
20081010 21:00	10.0	10.0	10.0	92	8.8	0	0	45	0.00	1033.359	0	0.000	0
20081010 21:05	10.1	10.1	10.1	92	8.8	0	0	45	0.00	1033.258	0	0.000	0
20081010 21:10	10.1	10.1	10.1	92	8.8	0	5	112	0.00	1033.326	0	0.000	0
20081010 21:15	10.1	10.1	10.1	91	8.7	0	5	112	0.00	1033.359	0	0.000	0
20081010 21:20	10.1	10.1	10.1	91	8.7	0	5	135	0.00	1033.359	0	0.000	0
20081010 21:25	10.1	10.1	10.1	91	8.7	0	0	135	0.00	1033.326	0	0.000	0
20081010 21:30	10.1	10.1	10.1	90	8.5	0	2	135	0.00	1033.427	0	0.000	0
20081010 21:35	10.2	10.2	10.2	90	8.6	0	2	135	0.00	1033.393	0	0.000	0
20081010 21:40	10.2	10.2	10.2	89	8.4	2	8	135	0.00	1033.393	0	0.000	0
20081010 21:45	10.2	10.2	10.2	89	8.5	0	3	135	0.00	1033.461	0	0.000	0
20081010 21:50	10.2	10.2	10.2	89	8.5	0	0	135	0.00	1033.461	0	0.000	0
20081010 21:55	10.2	10.2	10.2	89	8.5	0	2	135	0.00	1033.495	0	0.000	0
20081010 22:00	10.2	10.2	10.2	88	8.3	2	5	135	0.00	1033.427	0	0.000	0
20081010 22:05	10.2	10.2	10.2	88	8.3	3	8	135	0.00	1033.326	0	0.000	0
20081010 22:10	10.1	10.1	10.1	88	8.2	0	3	135	0.00	1033.326	0	0.000	0
20081010 22:15	10.1	10.1	10.1	88	8.2	0	2	135	0.00	1033.326	0	0.000	0
20081010 22:20	10.1	10.1	10.1	88	8.2	0	2	135	0.00	1033.359	0	0.000	0
20081010 22:25	10.1	10.1	10.1	89	8.3	2	5	135	0.00	1033.326	0	0.000	0
20081010 22:30	10.0	10.0	10.0	89	8.3	2	5	135	0.00	1033.326	0	0.000	0
20081010 22:35	9.9	9.9	9.9	89	8.2	0	0	135	0.00	1033.292	0	0.000	0
20081010 22:40	9.9	9.9	9.9	89	8.2	0	2	157	0.00	1033.292	0	0.000	0
20081010 22:45	9.9	9.9	9.9	89	8.2	0	2	157	0.00	1033.258	0	0.000	0
20081010 22:50	9.9	9.9	9.9	89	8.2	0	2	157	0.00	1033.224	0	0.000	0
20081010 22:55	9.9	9.9	9.9	89	8.2	0	2	157	0.00	1033.224	0	0.000	0
20081010 23:00	9.9	9.9	9.9	89	8.2	0	5	157	0.00	1033.224	0	0.000	0
20081010 23:05	9.9	9.9	9.9	89	8.2	0	3	157	0.00	1033.258	0	0.000	0
20081010 23:10	9.9	9.9	9.9	90	8.3	2	5	157	0.00	1033.258	0	0.000	0
20081010 23:15	9.8	9.8	9.8	90	8.3	0	0	157	0.00	1033.190	0	0.000	0
20081010 23:20	9.8	9.8	9.8	90	8.3	0	0	157	0.00	1033.292	0	0.000	0
20081010 23:25	9.8	9.8	9.8	90	8.3	0	2	157	0.00	1033.224	0	0.000	0
20081010 23:30	9.8	9.8	9.8	90	8.3	0	2	157	0.00	1033.190	0	0.000	0
20081010 23:35	9.8	9.8	9.8	90	8.3	0	2	157	0.00	1033.156	0	0.000	0
20081010 23:40	9.8	9.8	9.8	90	8.3	0	2	157	0.00	1033.156	0	0.000	0
20081010 23:45	9.8	9.8	9.8	90	8.3	0	2	157	0.00	1033.122	0	0.000	0
20081010 23:50	9.8	9.8	9.8	90	8.2	0	5	157	0.00	1033.156	0	0.000	0
20081010 23:55	9.7	9.7	9.7	90	8.2	0	2	157	0.00	1033.122	0	0.000	0
20081010 24:00	9.7	9.7	9.7	91	8.3	0	0	157	0.00	1033.122	0	0.000	0



Please note the license to use and transfer of this data:
http://creativecommons.org/licenses/by-nc-sa/3.0/deed.en

Bitte beachten sie die Lizenz zur Verwertung und Weitergabe der Daten:
http://creativecommons.org/licenses/by-nc-sa/3.0/deed.de

zurück zur Übersicht der Archivdaten (Monats und Tagesdaten)

Cookies helfen bei der Bereitstellung von Inhalten. Durch die Nutzung dieser Seiten erklärst du dich damit einverstanden, dass Cookies auf deinem Rechner gespeichert werden. Weitere Information